Time;durP1;ratioP1;P1;durP2;ratioP2;P2;SDS_P1;SDS_P2;PMS_P1;PMS_P2;Temp;Humidity;BMP_temperature;BMP_pressure;BME280_temperature;BME280_humidity;BME280_pressure;Samples;Min_cycle;Max_cycle;Signal;HPM_P1;HPM_P2
2022/04/22 00:00:43;;;;;;;17.63;14.15;;;;;;;;;;2073468;28;20562;-59
2022/04/22 00:01:43;;;;;;;15.95;13.32;;;;;;;;;;2074728;28;20263;-55
2022/04/22 00:02:44;;;;;;;14.82;12.82;;;;;;;;;;2073560;28;20172;-56
2022/04/22 00:03:44;;;;;;;16.60;14.18;;;;;;;;;;2073478;28;20224;-58
2022/04/22 00:04:44;;;;;;;15.18;13.70;;;;;;;;;;2073650;28;20181;-58
2022/04/22 00:05:45;;;;;;;15.68;13.70;;;;;;;;;;2073455;28;20197;-57
2022/04/22 00:06:45;;;;;;;18.27;12.88;;;;;;;;;;2074749;28;20226;-56
2022/04/22 00:07:45;;;;;;;14.88;13.38;;;;;;;;;;2073762;28;20570;-59
2022/04/22 00:08:46;;;;;;;16.52;13.98;;;;;;;;;;2071598;28;20554;-55
2022/04/22 00:09:46;;;;;;;18.85;13.52;;;;;;;;;;2074806;28;20205;-57
2022/04/22 00:12:05;;;;;;;16.52;13.63;;;;;;;;;;2070588;28;20168;-56
2022/04/22 00:13:06;;;;;;;15.70;14.13;;;;;;;;;;2074702;28;20539;-54
2022/04/22 00:14:06;;;;;;;16.27;14.65;;;;;;;;;;2070535;28;20212;-57
2022/04/22 00:15:07;;;;;;;15.70;14.10;;;;;;;;;;2074178;28;20583;-54
2022/04/22 00:16:07;;;;;;;15.60;14.07;;;;;;;;;;2074093;28;20319;-56
2022/04/22 00:17:07;;;;;;;16.30;14.18;;;;;;;;;;2073119;28;20204;-59
2022/04/22 00:18:07;;;;;;;15.13;13.52;;;;;;;;;;2071031;28;20192;-54
2022/04/22 00:19:07;;;;;;;15.80;14.20;;;;;;;;;;2070515;28;20166;-56
2022/04/22 00:20:10;;;;;;;15.60;14.02;;;;;;;;;;2068828;28;20177;-58
2022/04/22 00:21:10;;;;;;;16.17;14.52;;;;;;;;;;2071016;28;20181;-54
2022/04/22 00:22:10;;;;;;;16.63;14.82;;;;;;;;;;2073570;28;20191;-56
2022/04/22 00:23:11;;;;;;;17.08;14.52;;;;;;;;;;2071449;28;20192;-60
2022/04/22 00:24:11;;;;;;;15.65;14.15;;;;;;;;;;2070058;28;20176;-55
2022/04/22 00:25:12;;;;;;;16.20;14.38;;;;;;;;;;2074044;28;20173;-56
2022/04/22 00:26:12;;;;;;;18.10;15.63;;;;;;;;;;2070217;28;20670;-58
2022/04/22 00:27:13;;;;;;;17.65;15.68;;;;;;;;;;2067219;28;20178;-54
2022/04/22 00:28:13;;;;;;;16.10;14.52;;;;;;;;;;2073996;28;20665;-58
2022/04/22 00:29:13;;;;;;;16.77;15.07;;;;;;;;;;2073553;28;20168;-58
2022/04/22 00:30:13;;;;;;;17.15;15.55;;;;;;;;;;2070188;28;20625;-59
2022/04/22 00:31:14;;;;;;;17.52;15.85;;;;;;;;;;2070374;28;20220;-55
2022/04/22 00:32:14;;;;;;;16.30;14.50;;;;;;;;;;2071274;28;20173;-57
2022/04/22 00:33:15;;;;;;;17.67;15.68;;;;;;;;;;2074722;28;20177;-57
2022/04/22 00:34:15;;;;;;;17.63;15.63;;;;;;;;;;2069590;28;20177;-56
2022/04/22 00:35:15;;;;;;;17.65;15.85;;;;;;;;;;2068124;28;20248;-53
2022/04/22 00:36:15;;;;;;;17.38;15.68;;;;;;;;;;2067648;28;20180;-58
2022/04/22 00:37:16;;;;;;;17.95;15.27;;;;;;;;;;2070749;28;20251;-55
2022/04/22 00:38:16;;;;;;;17.23;15.45;;;;;;;;;;2074065;28;20545;-57
2022/04/22 00:39:16;;;;;;;16.88;15.32;;;;;;;;;;2074573;28;20173;-55
2022/04/22 00:40:16;;;;;;;18.05;16.17;;;;;;;;;;2073537;28;20208;-61
2022/04/22 00:41:17;;;;;;;20.40;17.25;;;;;;;;;;2073606;28;20181;-58
2022/04/22 00:42:17;;;;;;;17.30;15.40;;;;;;;;;;2071890;28;20205;-56
2022/04/22 00:43:18;;;;;;;18.42;16.52;;;;;;;;;;2072143;28;20172;-54
2022/04/22 00:44:18;;;;;;;17.70;15.80;;;;;;;;;;2072108;28;20558;-58
2022/04/22 00:45:19;;;;;;;18.23;16.40;;;;;;;;;;2073151;28;20165;-57
2022/04/22 00:46:20;;;;;;;21.25;16.52;;;;;;;;;;2073978;28;20205;-55
2022/04/22 00:47:20;;;;;;;18.15;16.40;;;;;;;;;;2072461;28;20184;-56
2022/04/22 00:48:21;;;;;;;17.20;15.50;;;;;;;;;;2073428;28;20211;-58
2022/04/22 00:49:21;;;;;;;18.13;16.42;;;;;;;;;;2072976;28;20235;-58
2022/04/22 00:50:21;;;;;;;18.38;16.60;;;;;;;;;;2073240;28;20201;-56
2022/04/22 00:51:22;;;;;;;17.52;15.73;;;;;;;;;;2073757;28;20664;-55
2022/04/22 00:52:23;;;;;;;16.90;15.40;;;;;;;;;;2073939;28;20259;-60
2022/04/22 00:53:25;;;;;;;16.70;15.10;;;;;;;;;;2074319;28;20188;-54
2022/04/22 00:54:25;;;;;;;18.15;16.40;;;;;;;;;;2073145;28;20200;-54
2022/04/22 00:55:26;;;;;;;18.42;16.52;;;;;;;;;;2072371;28;20220;-58
2022/04/22 00:56:27;;;;;;;17.77;15.88;;;;;;;;;;2073180;28;20192;-60
2022/04/22 00:57:28;;;;;;;17.63;15.90;;;;;;;;;;2074394;28;20733;-59
2022/04/22 00:58:28;;;;;;;18.20;16.38;;;;;;;;;;2074240;28;20205;-55
2022/04/22 00:59:30;;;;;;;18.55;16.60;;;;;;;;;;2072914;28;20189;-55
2022/04/22 01:00:31;;;;;;;17.20;15.60;;;;;;;;;;2074557;28;20554;-53
2022/04/22 01:01:33;;;;;;;17.20;15.48;;;;;;;;;;2076742;28;20185;-59
2022/04/22 01:02:34;;;;;;;17.50;15.82;;;;;;;;;;2079173;28;20367;-61
2022/04/22 01:03:34;;;;;;;18.58;16.55;;;;;;;;;;2077251;28;20179;-61
2022/04/22 01:09:51;;;;;;;16.15;14.55;;;;;;;;;;2072194;28;20201;-59
2022/04/22 01:10:51;;;;;;;16.63;14.75;;;;;;;;;;2066841;28;20537;-61
2022/04/22 01:11:51;;;;;;;16.95;15.35;;;;;;;;;;2068203;28;20177;-61
2022/04/22 01:12:52;;;;;;;17.42;15.68;;;;;;;;;;2077555;28;20204;-59
2022/04/22 01:13:52;;;;;;;18.38;16.58;;;;;;;;;;2083018;28;20216;-58
2022/04/22 01:14:52;;;;;;;17.23;15.43;;;;;;;;;;2079127;28;20180;-60
2022/04/22 01:15:53;;;;;;;17.73;15.93;;;;;;;;;;2069075;28;20236;-61
2022/04/22 01:16:55;;;;;;;17.73;16.02;;;;;;;;;;2073781;28;20181;-60
2022/04/22 01:17:55;;;;;;;18.20;16.40;;;;;;;;;;2071455;28;20188;-59
2022/04/22 01:18:55;;;;;;;18.65;16.77;;;;;;;;;;2074092;28;20176;-60
2022/04/22 01:19:56;;;;;;;17.90;16.10;;;;;;;;;;2080674;28;20180;-60
2022/04/22 01:21:02;;;;;;;18.83;16.83;;;;;;;;;;2074194;28;20195;-58
2022/04/22 01:22:03;;;;;;;18.02;16.13;;;;;;;;;;2063378;28;20182;-60
2022/04/22 01:23:03;;;;;;;17.95;16.27;;;;;;;;;;2070767;28;20252;-59
2022/04/22 01:24:03;;;;;;;18.02;16.33;;;;;;;;;;2073957;28;20173;-59
2022/04/22 01:25:04;;;;;;;20.50;16.48;;;;;;;;;;2079116;28;20187;-60
2022/04/22 01:26:04;;;;;;;19.35;17.35;;;;;;;;;;2079967;28;20183;-59
2022/04/22 01:27:05;;;;;;;17.65;15.85;;;;;;;;;;2068821;28;20192;-56
2022/04/22 01:28:06;;;;;;;17.83;15.93;;;;;;;;;;2070770;28;20268;-60
2022/04/22 01:29:06;;;;;;;18.38;16.42;;;;;;;;;;2074723;28;20204;-53
2022/04/22 01:30:07;;;;;;;18.52;16.83;;;;;;;;;;2072603;28;20193;-59
2022/04/22 01:31:07;;;;;;;20.30;18.05;;;;;;;;;;2074995;28;20169;-61
2022/04/22 01:32:07;;;;;;;19.13;17.23;;;;;;;;;;2074526;28;20263;-59
2022/04/22 01:33:08;;;;;;;18.77;16.98;;;;;;;;;;2074476;28;20260;-61
2022/04/22 01:34:08;;;;;;;19.23;17.23;;;;;;;;;;2074462;28;20217;-61
2022/04/22 01:35:08;;;;;;;19.13;16.98;;;;;;;;;;2070187;28;20185;-60
2022/04/22 01:36:08;;;;;;;19.23;17.30;;;;;;;;;;2066670;28;20201;-58
2022/04/22 01:37:09;;;;;;;21.30;17.48;;;;;;;;;;2076561;28;20184;-60
2022/04/22 01:38:09;;;;;;;21.27;19.10;;;;;;;;;;2067161;28;20173;-61
2022/04/22 01:39:09;;;;;;;20.48;18.48;;;;;;;;;;2073062;28;20189;-58
2022/04/22 01:40:10;;;;;;;20.02;17.92;;;;;;;;;;2071546;28;20327;-60
2022/04/22 01:41:10;;;;;;;19.85;17.85;;;;;;;;;;2075197;28;20181;-60
2022/04/22 01:42:11;;;;;;;20.45;17.73;;;;;;;;;;2074468;28;20176;-61
2022/04/22 01:43:11;;;;;;;21.17;17.73;;;;;;;;;;2073877;28;20177;-61
2022/04/22 01:44:11;;;;;;;21.73;19.13;;;;;;;;;;2073233;28;20185;-59
2022/04/22 01:45:12;;;;;;;22.50;20.13;;;;;;;;;;2075275;28;20259;-59
2022/04/22 01:46:14;;;;;;;21.23;18.55;;;;;;;;;;2066718;28;20189;-58
2022/04/22 01:47:15;;;;;;;21.77;19.52;;;;;;;;;;2066225;28;20213;-60
2022/04/22 01:48:16;;;;;;;20.83;18.75;;;;;;;;;;2074509;28;20197;-57
2022/04/22 01:49:16;;;;;;;21.25;19.15;;;;;;;;;;2072472;28;20351;-59
2022/04/22 01:50:16;;;;;;;21.88;19.65;;;;;;;;;;2074558;28;20663;-59
2022/04/22 01:51:16;;;;;;;22.40;19.92;;;;;;;;;;2074416;28;20200;-59
2022/04/22 01:52:17;;;;;;;22.77;19.80;;;;;;;;;;2074963;28;20629;-60
2022/04/22 01:53:17;;;;;;;20.33;18.27;;;;;;;;;;2073427;28;20264;-62
2022/04/22 01:54:18;;;;;;;21.33;19.13;;;;;;;;;;2074513;28;20196;-57
2022/04/22 01:55:18;;;;;;;20.45;18.45;;;;;;;;;;2068464;28;20165;-59
2022/04/22 01:56:19;;;;;;;23.55;19.80;;;;;;;;;;2065951;28;20481;-60
2022/04/22 01:57:19;;;;;;;23.27;20.98;;;;;;;;;;2074383;28;20192;-60
2022/04/22 01:58:20;;;;;;;21.58;19.33;;;;;;;;;;2073160;28;20205;-59
2022/04/22 01:59:20;;;;;;;22.15;19.92;;;;;;;;;;2073867;28;20218;-57
2022/04/22 02:00:21;;;;;;;23.08;20.23;;;;;;;;;;2074528;28;20165;-56
2022/04/22 02:01:21;;;;;;;23.63;20.13;;;;;;;;;;2066120;28;20272;-55
2022/04/22 02:02:21;;;;;;;22.75;20.48;;;;;;;;;;2063746;28;20253;-54
2022/04/22 02:03:21;;;;;;;23.33;20.80;;;;;;;;;;2072315;28;20227;-60
2022/04/22 02:04:22;;;;;;;26.27;22.25;;;;;;;;;;2064625;28;20570;-56
2022/04/22 02:05:22;;;;;;;25.25;21.23;;;;;;;;;;2065914;28;20550;-59
2022/04/22 02:06:22;;;;;;;23.92;21.35;;;;;;;;;;2065027;28;20193;-55
2022/04/22 02:07:23;;;;;;;24.27;20.85;;;;;;;;;;2066956;28;20168;-57
2022/04/22 02:08:23;;;;;;;23.05;20.65;;;;;;;;;;2071959;28;20208;-58
2022/04/22 02:09:23;;;;;;;21.58;19.33;;;;;;;;;;2067464;28;20257;-59
2022/04/22 02:10:23;;;;;;;22.80;20.30;;;;;;;;;;2065603;28;20231;-57
2022/04/22 02:11:24;;;;;;;23.23;20.77;;;;;;;;;;2073131;28;20223;-60
2022/04/22 02:12:24;;;;;;;22.42;20.13;;;;;;;;;;2056582;28;20174;-61
2022/04/22 02:13:24;;;;;;;23.08;20.60;;;;;;;;;;2057546;28;20207;-60
2022/04/22 02:14:27;;;;;;;22.67;20.42;;;;;;;;;;2073245;28;20176;-56
2022/04/22 02:15:28;;;;;;;24.38;21.85;;;;;;;;;;2072978;28;20185;-59
2022/04/22 02:16:28;;;;;;;22.95;19.17;;;;;;;;;;2073526;28;20179;-53
2022/04/22 02:17:28;;;;;;;22.08;19.77;;;;;;;;;;2065077;28;20659;-60
2022/04/22 02:18:28;;;;;;;25.30;21.67;;;;;;;;;;2057560;28;20283;-58
2022/04/22 02:19:29;;;;;;;23.80;20.50;;;;;;;;;;2059137;28;20173;-59
2022/04/22 02:20:29;;;;;;;21.25;18.95;;;;;;;;;;2073718;28;20266;-54
2022/04/22 02:21:29;;;;;;;22.45;19.58;;;;;;;;;;2067548;28;20190;-55
2022/04/22 02:22:29;;;;;;;23.80;20.30;;;;;;;;;;2065049;28;20244;-57
2022/04/22 02:23:31;;;;;;;23.98;21.25;;;;;;;;;;2069521;28;20792;-59
2022/04/22 02:24:31;;;;;;;23.85;21.35;;;;;;;;;;2072986;28;20180;-59
2022/04/22 02:25:31;;;;;;;22.85;20.60;;;;;;;;;;2073677;28;20205;-60
2022/04/22 02:28:31;;;;;;;21.80;19.52;;;;;;;;;;2067050;28;20169;-56
2022/04/22 02:29:14;;;;;;;23.50;21.08;;;;;;;;;;2074125;28;20200;-62
2022/04/22 02:30:15;;;;;;;21.92;19.52;;;;;;;;;;2072810;28;20176;-61
2022/04/22 02:31:16;;;;;;;23.83;21.38;;;;;;;;;;2065670;28;20287;-60
2022/04/22 02:32:16;;;;;;;22.42;20.02;;;;;;;;;;2059961;28;20274;-59
2022/04/22 02:33:16;;;;;;;20.88;18.75;;;;;;;;;;2067343;28;20176;-60
2022/04/22 02:34:17;;;;;;;21.13;19.02;;;;;;;;;;2075337;28;20189;-57
2022/04/22 02:35:21;;;;;;;21.33;18.98;;;;;;;;;;2075014;28;20271;-59
2022/04/22 02:36:21;;;;;;;21.02;18.90;;;;;;;;;;2074778;28;20815;-58
2022/04/22 02:37:22;;;;;;;20.38;18.27;;;;;;;;;;2075470;28;20192;-60
2022/04/22 02:38:22;;;;;;;21.23;18.90;;;;;;;;;;2075388;28;20611;-57
2022/04/22 02:39:22;;;;;;;20.58;18.25;;;;;;;;;;2075103;28;20638;-57
2022/04/22 02:45:38;;;;;;;19.17;17.27;;;;;;;;;;2069121;28;20185;-58
2022/04/22 02:46:38;;;;;;;22.48;20.23;;;;;;;;;;2066699;28;20174;-58
2022/04/22 02:47:38;;;;;;;21.00;18.90;;;;;;;;;;2068992;28;20172;-59
2022/04/22 02:48:38;;;;;;;21.13;18.90;;;;;;;;;;2076653;28;20216;-57
2022/04/22 02:49:43;;;;;;;20.73;18.70;;;;;;;;;;2077277;28;20193;-61
2022/04/22 02:50:43;;;;;;;22.10;19.77;;;;;;;;;;2075511;28;20173;-59
2022/04/22 02:51:44;;;;;;;22.10;19.83;;;;;;;;;;2077632;28;20196;-58
2022/04/22 02:52:44;;;;;;;23.17;20.75;;;;;;;;;;2075229;28;20661;-55
2022/04/22 02:53:44;;;;;;;23.27;20.98;;;;;;;;;;2075698;28;20243;-57
2022/04/22 02:54:44;;;;;;;22.67;20.27;;;;;;;;;;2076695;28;20602;-56
2022/04/22 02:55:48;;;;;;;22.67;19.85;;;;;;;;;;2076972;28;20180;-58
2022/04/22 02:56:50;;;;;;;22.55;20.25;;;;;;;;;;2076339;28;20680;-57
2022/04/22 02:57:51;;;;;;;22.13;19.35;;;;;;;;;;2074784;28;20831;-58
2022/04/22 02:58:53;;;;;;;23.52;20.33;;;;;;;;;;2075755;28;20212;-60
2022/04/22 02:59:54;;;;;;;22.48;20.27;;;;;;;;;;2059570;28;20201;-60
2022/04/22 03:00:54;;;;;;;20.92;18.92;;;;;;;;;;2059715;28;20185;-58
2022/04/22 03:01:54;;;;;;;23.27;19.80;;;;;;;;;;2077664;28;20172;-56
2022/04/22 03:02:55;;;;;;;22.40;19.83;;;;;;;;;;2076276;28;20195;-57
2022/04/22 03:03:55;;;;;;;21.48;18.85;;;;;;;;;;2076915;28;20200;-59
2022/04/22 03:04:57;;;;;;;20.15;18.10;;;;;;;;;;2067661;28;20189;-60
2022/04/22 03:05:58;;;;;;;20.23;18.02;;;;;;;;;;2068864;28;20189;-58
2022/04/22 03:06:58;;;;;;;20.33;18.20;;;;;;;;;;2077975;28;20172;-58
2022/04/22 03:07:58;;;;;;;21.83;19.55;;;;;;;;;;2076184;28;20176;-60
2022/04/22 03:08:58;;;;;;;20.27;18.30;;;;;;;;;;2076149;28;20204;-56
2022/04/22 03:09:59;;;;;;;20.85;18.55;;;;;;;;;;2073032;28;20236;-59
2022/04/22 03:10:59;;;;;;;19.73;17.92;;;;;;;;;;2077561;28;20174;-57
2022/04/22 03:11:59;;;;;;;22.02;18.38;;;;;;;;;;2077141;28;20646;-60
2022/04/22 03:12:59;;;;;;;20.73;18.63;;;;;;;;;;2077504;28;20219;-57
2022/04/22 03:14:00;;;;;;;21.60;19.40;;;;;;;;;;2073504;28;20231;-55
2022/04/22 03:15:01;;;;;;;20.95;18.73;;;;;;;;;;2076815;28;20224;-56
2022/04/22 03:16:02;;;;;;;20.50;18.15;;;;;;;;;;2077238;28;20232;-55
2022/04/22 03:17:02;;;;;;;20.10;17.92;;;;;;;;;;2076718;28;20239;-58
2022/04/22 03:18:03;;;;;;;20.73;18.60;;;;;;;;;;2074113;28;20199;-60
2022/04/22 03:19:03;;;;;;;21.15;18.95;;;;;;;;;;2076359;28;20181;-61
2022/04/22 03:20:04;;;;;;;22.20;18.08;;;;;;;;;;2074540;28;20272;-61
2022/04/22 03:21:05;;;;;;;22.27;18.05;;;;;;;;;;2077059;28;20196;-57
2022/04/22 03:22:05;;;;;;;20.00;18.00;;;;;;;;;;2075323;28;20213;-55
2022/04/22 03:23:05;;;;;;;20.08;17.83;;;;;;;;;;2070583;28;20179;-60
2022/04/22 03:24:07;;;;;;;22.05;18.88;;;;;;;;;;2071393;28;20336;-57
2022/04/22 03:25:08;;;;;;;21.75;19.45;;;;;;;;;;2069343;28;20188;-59
2022/04/22 03:26:08;;;;;;;20.38;17.55;;;;;;;;;;2071751;28;20560;-54
2022/04/22 03:27:09;;;;;;;19.70;17.85;;;;;;;;;;2071172;28;20343;-60
2022/04/22 03:28:09;;;;;;;19.52;17.63;;;;;;;;;;2071658;28;20173;-57
2022/04/22 03:29:09;;;;;;;19.27;17.27;;;;;;;;;;2075949;28;20197;-54
2022/04/22 03:30:10;;;;;;;20.35;17.33;;;;;;;;;;2074822;28;20303;-56
2022/04/22 03:31:10;;;;;;;20.00;17.88;;;;;;;;;;2074800;28;20175;-56
2022/04/22 03:32:11;;;;;;;20.73;18.52;;;;;;;;;;2073881;28;20289;-56
2022/04/22 03:33:11;;;;;;;23.73;19.35;;;;;;;;;;2075211;28;20600;-59
2022/04/22 03:34:11;;;;;;;20.63;18.42;;;;;;;;;;2075122;28;20308;-58
2022/04/22 03:35:12;;;;;;;18.70;16.90;;;;;;;;;;2075216;28;20196;-59
2022/04/22 03:36:12;;;;;;;20.98;18.25;;;;;;;;;;2076276;28;20586;-59
2022/04/22 03:37:12;;;;;;;20.38;18.35;;;;;;;;;;2076255;28;20180;-57
2022/04/22 03:38:14;;;;;;;20.48;18.35;;;;;;;;;;2067376;28;20166;-57
2022/04/22 03:39:14;;;;;;;20.08;18.05;;;;;;;;;;2068530;28;20181;-57
2022/04/22 03:40:14;;;;;;;19.35;17.55;;;;;;;;;;2071836;28;20461;-58
2022/04/22 03:41:15;;;;;;;19.95;17.92;;;;;;;;;;2072036;28;20193;-57
2022/04/22 03:42:15;;;;;;;20.45;18.35;;;;;;;;;;2066795;28;20173;-56
2022/04/22 03:43:16;;;;;;;19.58;17.55;;;;;;;;;;2059142;28;20190;-60
2022/04/22 03:44:16;;;;;;;22.13;18.80;;;;;;;;;;2062779;28;20185;-57
2022/04/22 03:45:17;;;;;;;18.67;16.83;;;;;;;;;;2069038;28;20232;-58
2022/04/22 03:46:17;;;;;;;19.80;17.83;;;;;;;;;;2075957;28;20247;-59
2022/04/22 03:47:18;;;;;;;20.15;17.55;;;;;;;;;;2075426;28;20165;-57
2022/04/22 03:48:19;;;;;;;18.90;16.83;;;;;;;;;;2075937;28;20575;-59
2022/04/22 03:49:19;;;;;;;18.17;16.35;;;;;;;;;;2075801;28;20187;-58
2022/04/22 03:50:20;;;;;;;18.77;16.83;;;;;;;;;;2067414;28;20292;-56
2022/04/22 03:51:20;;;;;;;20.20;17.55;;;;;;;;;;2067604;28;20237;-56
2022/04/22 03:52:20;;;;;;;19.25;17.20;;;;;;;;;;2076030;28;20582;-58
2022/04/22 03:53:20;;;;;;;20.20;17.65;;;;;;;;;;2075784;28;20207;-60
2022/04/22 03:54:23;;;;;;;19.08;17.00;;;;;;;;;;2074570;28;20538;-60
2022/04/22 03:55:23;;;;;;;19.77;17.40;;;;;;;;;;2074548;28;20212;-58
2022/04/22 03:59:02;;;;;;;20.13;16.92;;;;;;;;;;2076781;28;20165;-59
2022/04/22 04:00:02;;;;;;;21.42;18.48;;;;;;;;;;2076561;28;20184;-56
2022/04/22 04:01:04;;;;;;;20.52;17.42;;;;;;;;;;2076457;28;20719;-59
2022/04/22 04:02:05;;;;;;;20.67;18.50;;;;;;;;;;2076570;28;20209;-61
2022/04/22 04:03:26;;;;;;;20.38;18.23;;;;;;;;;;2076199;28;20680;-59
2022/04/22 04:04:26;;;;;;;19.52;17.42;;;;;;;;;;2067476;28;20162;-59
2022/04/22 04:05:27;;;;;;;20.45;17.92;;;;;;;;;;2067829;28;20201;-58
2022/04/22 04:06:27;;;;;;;18.95;16.55;;;;;;;;;;2075387;28;20556;-59
2022/04/22 04:07:27;;;;;;;20.90;17.70;;;;;;;;;;2073769;28;20657;-60
2022/04/22 04:08:28;;;;;;;18.25;16.55;;;;;;;;;;2068321;28;20233;-62
2022/04/22 04:16:03;;;;;;;21.10;18.55;;;;;;;;;;2068297;28;20189;-59
2022/04/22 04:17:04;;;;;;;21.17;18.17;;;;;;;;;;2068868;28;20245;-61
2022/04/22 04:18:04;;;;;;;20.25;18.15;;;;;;;;;;2076492;28;20199;-62
2022/04/22 04:23:16;;;;;;;24.15;17.42;;;;;;;;;;2075442;28;20227;-55
2022/04/22 04:24:16;;;;;;;20.10;16.27;;;;;;;;;;2074994;28;20616;-58
2022/04/22 04:25:16;;;;;;;18.17;15.73;;;;;;;;;;2075890;28;20239;-66
2022/04/22 04:26:17;;;;;;;18.92;15.93;;;;;;;;;;2075003;28;20302;-59
2022/04/22 04:27:17;;;;;;;18.58;15.65;;;;;;;;;;2064270;28;20185;-55
2022/04/22 04:28:18;;;;;;;17.13;14.60;;;;;;;;;;2060316;28;20232;-56
2022/04/22 04:29:18;;;;;;;17.15;15.23;;;;;;;;;;2066857;28;20173;-57
2022/04/22 04:30:19;;;;;;;17.45;15.02;;;;;;;;;;2066701;28;20174;-60
2022/04/22 04:31:20;;;;;;;16.17;14.13;;;;;;;;;;2074401;28;20165;-61
2022/04/22 04:32:20;;;;;;;18.77;13.95;;;;;;;;;;2073915;28;20693;-58
2022/04/22 04:33:21;;;;;;;19.02;14.35;;;;;;;;;;2065291;28;20291;-57
2022/04/22 04:34:21;;;;;;;15.95;13.55;;;;;;;;;;2066403;28;20627;-58
2022/04/22 04:35:22;;;;;;;16.77;14.45;;;;;;;;;;2076894;28;20173;-57
2022/04/22 04:36:22;;;;;;;16.75;14.63;;;;;;;;;;2077131;28;20234;-61
2022/04/22 04:37:22;;;;;;;17.52;14.55;;;;;;;;;;2077598;28;20760;-57
2022/04/22 04:38:22;;;;;;;18.17;14.27;;;;;;;;;;2077186;28;20181;-58
2022/04/22 04:39:23;;;;;;;16.95;13.10;;;;;;;;;;2078482;28;20177;-60
2022/04/22 04:40:23;;;;;;;15.65;13.95;;;;;;;;;;2073584;28;20180;-61
2022/04/22 04:41:23;;;;;;;15.93;14.25;;;;;;;;;;2069595;28;20178;-60
2022/04/22 04:42:25;;;;;;;17.00;14.30;;;;;;;;;;2061771;28;20198;-51
2022/04/22 04:43:26;;;;;;;14.55;13.05;;;;;;;;;;2063415;28;20170;-59
2022/04/22 04:44:27;;;;;;;14.65;13.07;;;;;;;;;;2068516;28;20174;-60
2022/04/22 04:45:30;;;;;;;16.63;13.52;;;;;;;;;;2077035;28;20652;-58
2022/04/22 04:46:31;;;;;;;16.23;14.32;;;;;;;;;;2076218;28;20183;-61
2022/04/22 04:47:38;;;;;;;15.55;12.30;;;;;;;;;;2077509;28;20169;-56
2022/04/22 04:48:38;;;;;;;16.95;13.63;;;;;;;;;;2068390;28;20185;-58
2022/04/22 04:49:39;;;;;;;16.45;12.82;;;;;;;;;;2061330;28;20205;-56
2022/04/22 04:50:40;;;;;;;17.20;12.88;;;;;;;;;;2067981;28;20157;-61
2022/04/22 04:51:40;;;;;;;14.20;12.68;;;;;;;;;;2075091;28;20645;-57
2022/04/22 04:52:41;;;;;;;14.15;12.32;;;;;;;;;;2075941;28;20176;-63
2022/04/22 04:53:41;;;;;;;14.57;12.00;;;;;;;;;;2067236;28;20157;-57
2022/04/22 04:54:42;;;;;;;14.52;11.52;;;;;;;;;;2066836;28;20665;-61
2022/04/22 04:55:42;;;;;;;14.18;11.63;;;;;;;;;;2067520;28;20603;-62
2022/04/22 04:56:42;;;;;;;14.57;11.73;;;;;;;;;;2067646;28;20228;-63
2022/04/22 04:57:43;;;;;;;13.00;10.50;;;;;;;;;;2067141;28;20192;-61
2022/04/22 04:58:43;;;;;;;11.85;10.02;;;;;;;;;;2075914;28;20181;-55
2022/04/22 04:59:43;;;;;;;13.23;10.88;;;;;;;;;;2075635;28;20170;-57
2022/04/22 05:00:46;;;;;;;14.52;10.85;;;;;;;;;;2067402;28;20174;-63
2022/04/22 05:01:46;;;;;;;11.20;9.85;;;;;;;;;;2067896;28;20208;-56
2022/04/22 05:02:47;;;;;;;12.43;9.98;;;;;;;;;;2075820;28;20188;-55
2022/04/22 05:03:47;;;;;;;14.48;10.63;;;;;;;;;;2076046;28;20193;-61
2022/04/22 05:04:48;;;;;;;16.27;10.32;;;;;;;;;;2075870;28;20282;-58
2022/04/22 05:05:48;;;;;;;11.43;9.90;;;;;;;;;;2076512;28;20202;-56
2022/04/22 05:06:48;;;;;;;10.77;9.68;;;;;;;;;;2076057;28;20177;-57
2022/04/22 05:07:49;;;;;;;11.48;9.43;;;;;;;;;;2075155;28;20303;-61
2022/04/22 05:08:50;;;;;;;13.63;10.52;;;;;;;;;;2072810;28;20285;-58
2022/04/22 05:09:50;;;;;;;11.98;9.88;;;;;;;;;;2073870;28;20574;-57
2022/04/22 05:10:50;;;;;;;11.63;9.65;;;;;;;;;;2074070;28;20192;-56
2022/04/22 05:11:50;;;;;;;12.75;9.88;;;;;;;;;;2071473;28;20200;-58
2022/04/22 05:12:51;;;;;;;12.48;9.35;;;;;;;;;;2074660;28;20260;-60
2022/04/22 05:13:51;;;;;;;9.82;8.80;;;;;;;;;;2074229;28;20227;-56
2022/04/22 05:14:52;;;;;;;10.63;8.38;;;;;;;;;;2075087;28;20161;-60
2022/04/22 05:15:53;;;;;;;13.00;9.43;;;;;;;;;;2074837;28;20177;-59
2022/04/22 05:16:56;;;;;;;13.05;9.18;;;;;;;;;;2074588;28;20171;-61
2022/04/22 05:17:57;;;;;;;9.88;8.68;;;;;;;;;;2074556;28;20172;-59
2022/04/22 05:18:57;;;;;;;11.18;8.25;;;;;;;;;;2075088;28;20212;-54
2022/04/22 05:19:57;;;;;;;9.30;8.18;;;;;;;;;;2074348;28;20181;-52
2022/04/22 05:20:58;;;;;;;9.38;8.13;;;;;;;;;;2071488;28;20228;-62
2022/04/22 05:21:58;;;;;;;9.93;7.80;;;;;;;;;;2074621;28;20645;-60
2022/04/22 05:22:58;;;;;;;8.32;7.63;;;;;;;;;;2079737;28;20176;-59
2022/04/22 05:23:58;;;;;;;9.77;7.70;;;;;;;;;;2065218;28;20192;-58
2022/04/22 05:24:59;;;;;;;8.77;7.88;;;;;;;;;;2068764;28;20172;-62
2022/04/22 05:26:01;;;;;;;9.23;8.18;;;;;;;;;;2081573;28;20531;-61
2022/04/22 05:27:02;;;;;;;10.75;8.00;;;;;;;;;;2079184;28;20228;-59
2022/04/22 05:28:04;;;;;;;9.88;7.53;;;;;;;;;;2078435;28;20176;-59
2022/04/22 05:29:05;;;;;;;8.45;7.45;;;;;;;;;;2083646;28;20215;-57
2022/04/22 05:32:47;;;;;;;11.02;7.38;;;;;;;;;;2083266;28;20214;-57
2022/04/22 05:33:48;;;;;;;8.65;7.85;;;;;;;;;;2083111;28;20160;-58
2022/04/22 05:34:48;;;;;;;11.65;8.05;;;;;;;;;;2076055;28;20169;-56
2022/04/22 05:35:49;;;;;;;8.07;6.43;;;;;;;;;;2076132;28;20177;-59
2022/04/22 05:36:49;;;;;;;8.07;7.07;;;;;;;;;;2080729;28;20179;-56
2022/04/22 05:38:00;;;;;;;12.82;7.68;;;;;;;;;;2081428;28;20168;-60
2022/04/22 05:39:00;;;;;;;10.60;6.93;;;;;;;;;;2081699;28;20180;-59
2022/04/22 05:40:00;;;;;;;7.35;6.28;;;;;;;;;;2073616;28;20181;-56
2022/04/22 05:41:01;;;;;;;8.52;6.80;;;;;;;;;;2074655;28;20196;-56
2022/04/22 05:42:01;;;;;;;7.55;6.75;;;;;;;;;;2073690;28;20172;-67
2022/04/22 05:43:02;;;;;;;8.43;6.65;;;;;;;;;;2075883;28;20657;-54
2022/04/22 05:44:04;;;;;;;7.80;7.00;;;;;;;;;;2076671;28;20267;-61
2022/04/22 05:45:07;;;;;;;8.95;6.90;;;;;;;;;;2076008;28;20169;-57
2022/04/22 05:46:08;;;;;;;9.60;6.65;;;;;;;;;;2076306;28;20535;-56
2022/04/22 05:47:08;;;;;;;12.38;6.70;;;;;;;;;;2074760;28;20184;-57
2022/04/22 05:48:09;;;;;;;18.02;16.60;;;;;;;;;;2074360;28;20200;-56
2022/04/22 05:49:09;;;;;;;10.13;9.23;;;;;;;;;;2074305;28;20259;-57
2022/04/22 05:50:10;;;;;;;7.45;6.65;;;;;;;;;;2074224;28;20196;-58
2022/04/22 05:51:10;;;;;;;10.25;7.93;;;;;;;;;;2063621;28;20576;-59
2022/04/22 05:52:11;;;;;;;9.15;7.07;;;;;;;;;;2064285;28;20189;-58
2022/04/22 05:53:11;;;;;;;7.28;6.57;;;;;;;;;;2072727;28;20560;-54
2022/04/22 05:54:11;;;;;;;7.60;6.90;;;;;;;;;;2075329;28;20161;-59
2022/04/22 05:55:16;;;;;;;7.95;6.50;;;;;;;;;;2072344;28;20188;-58
2022/04/22 05:56:17;;;;;;;7.13;6.43;;;;;;;;;;2071891;28;20551;-58
2022/04/22 05:57:17;;;;;;;7.93;6.70;;;;;;;;;;2080330;28;20204;-54
2022/04/22 05:58:17;;;;;;;6.85;6.28;;;;;;;;;;2076680;28;20200;-56
2022/04/22 05:59:18;;;;;;;11.38;6.60;;;;;;;;;;2074057;28;20169;-56
2022/04/22 06:00:19;;;;;;;9.80;6.75;;;;;;;;;;2075691;28;20315;-59
2022/04/22 06:01:19;;;;;;;7.90;5.95;;;;;;;;;;2079028;28;20178;-56
2022/04/22 06:02:20;;;;;;;6.97;6.40;;;;;;;;;;2080410;28;20207;-58
2022/04/22 06:03:20;;;;;;;8.88;6.50;;;;;;;;;;2073615;28;20207;-57
2022/04/22 06:04:20;;;;;;;7.10;6.28;;;;;;;;;;2066696;28;20272;-56
2022/04/22 06:05:21;;;;;;;12.50;6.93;;;;;;;;;;2074568;28;20642;-60
2022/04/22 06:06:21;;;;;;;9.45;6.88;;;;;;;;;;2079068;28;20585;-58
2022/04/22 06:07:21;;;;;;;7.13;6.53;;;;;;;;;;2079512;28;20176;-57
2022/04/22 06:11:00;;;;;;;9.07;7.40;;;;;;;;;;2073485;28;20188;-58
2022/04/22 06:12:00;;;;;;;11.68;7.40;;;;;;;;;;2073871;28;20540;-56
2022/04/22 06:13:00;;;;;;;7.97;7.18;;;;;;;;;;2074228;28;20204;-60
2022/04/22 06:14:01;;;;;;;7.40;6.50;;;;;;;;;;2073921;28;20661;-55
2022/04/22 06:15:04;;;;;;;10.20;7.18;;;;;;;;;;2074042;28;20169;-58
2022/04/22 06:16:04;;;;;;;7.30;6.20;;;;;;;;;;2073548;28;20657;-59
2022/04/22 06:17:04;;;;;;;19.60;7.80;;;;;;;;;;2066878;28;20173;-60
2022/04/22 06:18:05;;;;;;;35.10;9.43;;;;;;;;;;2065140;28;20677;-57
2022/04/22 06:19:05;;;;;;;50.80;9.48;;;;;;;;;;2065144;28;20180;-54
2022/04/22 06:20:06;;;;;;;42.63;9.80;;;;;;;;;;2074294;28;20176;-57
2022/04/22 06:21:06;;;;;;;274.45;31.15;;;;;;;;;;2065800;28;20674;-58
2022/04/22 06:22:06;;;;;;;43.53;13.48;;;;;;;;;;2066512;28;20181;-58
2022/04/22 06:23:07;;;;;;;48.95;9.63;;;;;;;;;;2074410;28;20200;-58
2022/04/22 06:24:07;;;;;;;29.75;12.63;;;;;;;;;;2074333;28;20181;-58
2022/04/22 06:25:09;;;;;;;64.90;12.13;;;;;;;;;;2075096;28;20173;-57
2022/04/22 06:26:09;;;;;;;35.58;11.13;;;;;;;;;;2081581;28;20179;-58
2022/04/22 06:27:09;;;;;;;79.15;14.00;;;;;;;;;;2083485;28;20547;-59